Airfield :
LOGIN :

Register | Disclaimer

   EN    FR    IT 

 










Legend :    VFR   Marginal VFR   IFR   Intensive IFR   Very Intensive IFR
Visi :
Ceiling :
>= 8 km
>= 3000ft
5 to 8 km
1000 to 3000 ft
1500m to 5 km
500 to 1000 ft
800 to 1500m
200 to 500 ft
< 800m
< 200 ft
Symbols :   Thunderstorms  Fog  Heavy snow  Heavy precipitations  Wind > 20 kt
SIGMETs :     Misc.  Thunderstorms  Icing  Turbulence  Mountain Waves  Volcanic Ashes






- Airport Elevation : 70 ft
- IATA code : LEI


LEAM - Almeria

CURRENT METAR :
  • 120530Z 25007KT 9000 FEW008 SCT012 25/25 Q1013

EXPIRED METARs :
  • 120500Z 23005KT 9000 FEW008 SCT012 26/25 Q1013
  • 120430Z VRB02KT 9000 SCT010 26/25 Q1012
  • 120400Z VRB02KT 9000 FEW008 26/25 Q1012
  • 120330Z 00000KT 9999 FEW008 26/25 Q1012
  • 120300Z 00000KT 9999 FEW010 26/25 Q1012

TAF TAF LEAM
Valid from the 12 at 03:00 until the 13 at 03:00 UTC


120200Z 1203/1303 25006KT 9999 SCT015 TX29/1215Z TN24/1205Z
PROB40
TEMPO 1203/1209 BKN010
PROB30
TEMPO 1203/1206 3000 TSRA SCT010 SCT030CB
BECMG 1210/1213 23016KT
PROB30
TEMPO 1213/1220 23018G28KT
BECMG 1220/1223 VRB02KT



MET'MAP, your aeronautical weather chart ! - Copyright ORBIFLY December 2007 - Disclaimer

ORBIFLY MET'MAP TEAM :

Programming & Development : Alexandra Zaïnal
Concept & original design : Baudouin d'Aumeries
Assistance for programming : Marc-Olivier Méhu
Technical & hardware support : Manuel Goepfert

Contact : metmap@orbifly.com




SOURCES & CREDITS :

   NOAA